Time;durP1;ratioP1;P1;durP2;ratioP2;P2;SDS_P1;SDS_P2;PMS_P1;PMS_P2;Temp;Humidity;BMP_temperature;BMP_pressure;BME280_temperature;BME280_humidity;BME280_pressure;Samples;Min_cycle;Max_cycle;Signal;HPM_P1;HPM_P2
2023/11/30 00:02:19;;;;;;;18.53;16.57;;;0.40;99.90;;;;;;4947221;28;20456;-79
2023/11/30 00:04:47;;;;;;;18.23;16.23;;;0.50;99.90;;;;;;4953689;29;20476;-78
2023/11/30 00:07:14;;;;;;;17.87;16.17;;;0.50;99.90;;;;;;4941101;29;20480;-79
2023/11/30 00:09:41;;;;;;;17.50;16.00;;;0.40;99.90;;;;;;4954681;28;20531;-78
2023/11/30 00:12:08;;;;;;;17.70;15.90;;;0.40;99.90;;;;;;4946473;28;20967;-79
2023/11/30 00:14:34;;;;;;;18.27;16.37;;;0.40;99.90;;;;;;4934921;29;20536;-78
2023/11/30 00:17:02;;;;;;;16.87;15.37;;;0.40;99.90;;;;;;4937796;29;20457;-78
2023/11/30 00:19:29;;;;;;;17.80;16.07;;;0.40;99.90;;;;;;4956219;29;20499;-80
2023/11/30 00:21:56;;;;;;;17.57;15.83;;;0.40;99.90;;;;;;4935924;29;20705;-79
2023/11/30 00:24:23;;;;;;;18.30;16.60;;;0.40;99.90;;;;;;4934692;29;20471;-79
2023/11/30 00:26:49;;;;;;;17.57;15.83;;;0.40;99.90;;;;;;4946898;29;20470;-79
2023/11/30 00:29:16;;;;;;;16.70;15.20;;;0.40;99.90;;;;;;4937024;28;20933;-78
2023/11/30 00:31:43;;;;;;;18.33;16.53;;;0.50;99.90;;;;;;4936026;29;20469;-79
2023/11/30 00:34:10;;;;;;;18.80;16.80;;;0.40;99.90;;;;;;4937193;29;20478;-78
2023/11/30 00:36:37;;;;;;;16.60;14.97;;;0.50;99.90;;;;;;4958735;29;20534;-79
2023/11/30 00:39:05;;;;;;;19.43;16.43;;;0.50;99.90;;;;;;4947306;29;20454;-79
2023/11/30 00:41:32;;;;;;;18.10;16.30;;;0.50;99.90;;;;;;4936415;29;20433;-78
2023/11/30 00:44:02;;;;;;;18.67;16.80;;;0.50;99.90;;;;;;4940215;29;20475;-77
2023/11/30 00:46:29;;;;;;;16.33;14.73;;;0.60;99.90;;;;;;4942222;29;20511;-79
2023/11/30 00:48:56;;;;;;;16.53;15.03;;;0.60;99.90;;;;;;4941868;29;20449;-78
2023/11/30 00:51:23;;;;;;;16.80;15.23;;;0.60;99.90;;;;;;4938138;29;20444;-78
2023/11/30 00:53:49;;;;;;;18.00;16.20;;;0.50;99.90;;;;;;4949412;29;20931;-79
2023/11/30 00:56:18;;;;;;;17.73;15.60;;;0.60;99.90;;;;;;4952366;29;21018;-79
2023/11/30 00:58:44;;;;;;;17.20;15.50;;;0.50;99.90;;;;;;4945237;29;20466;-78
2023/11/30 01:01:11;;;;;;;16.43;14.77;;;0.50;99.90;;;;;;4940626;29;20449;-79
2023/11/30 01:03:39;;;;;;;16.97;15.37;;;0.50;99.90;;;;;;4943201;29;20484;-79
2023/11/30 01:06:07;;;;;;;17.13;15.30;;;0.50;99.90;;;;;;4945691;28;20930;-78
2023/11/30 01:08:33;;;;;;;17.17;15.40;;;0.50;99.90;;;;;;4939786;29;20439;-78
2023/11/30 01:11:03;;;;;;;17.23;15.73;;;0.40;99.90;;;;;;4945419;29;20464;-80
2023/11/30 01:13:31;;;;;;;16.07;14.67;;;0.40;99.90;;;;;;4945943;29;20530;-79
2023/11/30 01:15:58;;;;;;;17.93;16.03;;;0.40;99.90;;;;;;4934273;29;20459;-79
2023/11/30 01:18:24;;;;;;;16.87;15.17;;;0.30;99.90;;;;;;4942868;29;20478;-78
2023/11/30 01:20:51;;;;;;;17.07;15.53;;;0.30;99.90;;;;;;4938302;29;20461;-78
2023/11/30 01:23:18;;;;;;;17.00;15.50;;;0.30;99.90;;;;;;4941619;29;20438;-79
2023/11/30 01:25:45;;;;;;;17.30;15.70;;;0.30;99.90;;;;;;4950908;29;21053;-78
2023/11/30 01:28:12;;;;;;;17.03;15.30;;;0.30;99.90;;;;;;4950170;28;21018;-78
2023/11/30 01:30:41;;;;;;;16.70;15.20;;;0.20;99.90;;;;;;4945337;29;20464;-78
2023/11/30 01:33:08;;;;;;;17.03;15.43;;;0.20;99.90;;;;;;4934433;29;20453;-79
2023/11/30 01:35:35;;;;;;;16.87;15.17;;;0.20;99.90;;;;;;4934140;29;21068;-77
2023/11/30 01:38:02;;;;;;;15.93;14.37;;;0.20;99.90;;;;;;4936648;28;20453;-78
2023/11/30 01:40:29;;;;;;;16.60;14.80;;;0.10;99.90;;;;;;4934091;29;20491;-78
2023/11/30 01:42:55;;;;;;;16.33;14.73;;;0.10;99.90;;;;;;4933948;29;20448;-78
2023/11/30 01:45:22;;;;;;;15.67;14.37;;;0.10;99.90;;;;;;4955992;28;20481;-77
2023/11/30 01:47:50;;;;;;;16.60;15.00;;;0.10;99.90;;;;;;4935358;29;20442;-77
2023/11/30 01:50:18;;;;;;;15.83;14.33;;;0.10;99.90;;;;;;4942955;29;20458;-78
2023/11/30 01:52:45;;;;;;;15.03;13.70;;;0.20;99.90;;;;;;4938509;29;20457;-79
2023/11/30 01:55:13;;;;;;;15.67;14.30;;;0.20;99.90;;;;;;4937741;28;20460;-78
2023/11/30 01:57:40;;;;;;;15.10;13.80;;;0.10;99.90;;;;;;4944916;29;20451;-79
2023/11/30 02:00:08;;;;;;;15.53;14.17;;;0.10;99.90;;;;;;4948083;29;20463;-78
2023/11/30 02:02:40;;;;;;;16.20;14.70;;;0.00;99.90;;;;;;4938769;29;20523;-80
2023/11/30 02:05:08;;;;;;;15.87;14.40;;;0.00;99.90;;;;;;4937155;29;20479;-79
2023/11/30 02:07:35;;;;;;;16.77;15.13;;;0.00;99.90;;;;;;4942421;29;20437;-78
2023/11/30 02:10:02;;;;;;;16.30;14.90;;;-0.10;99.90;;;;;;4939976;28;20453;-78
2023/11/30 02:12:29;;;;;;;16.17;14.77;;;-0.10;99.90;;;;;;4936064;29;20515;-79
2023/11/30 02:14:59;;;;;;;16.90;15.50;;;-0.10;99.90;;;;;;4937686;29;20480;-79
2023/11/30 02:17:25;;;;;;;17.23;15.77;;;-0.10;99.90;;;;;;4942408;29;20901;-78
2023/11/30 02:19:52;;;;;;;18.13;15.83;;;-0.10;99.90;;;;;;4952816;28;20467;-78
2023/11/30 02:22:20;;;;;;;17.20;15.63;;;-0.10;99.90;;;;;;4938398;29;20512;-79
2023/11/30 02:24:47;;;;;;;14.83;13.40;;;-0.10;99.90;;;;;;4924829;29;20478;-78
2023/11/30 02:27:14;;;;;;;13.77;12.47;;;-0.10;99.90;;;;;;4940761;28;20441;-78
2023/11/30 02:29:41;;;;;;;14.50;13.20;;;-0.20;99.90;;;;;;4938437;29;20440;-79
2023/11/30 02:32:08;;;;;;;15.03;13.47;;;-0.30;99.90;;;;;;4942400;29;20463;-79
2023/11/30 02:34:35;;;;;;;16.17;14.70;;;-0.30;99.90;;;;;;4944008;29;20471;-78
2023/11/30 02:37:02;;;;;;;15.53;14.03;;;-0.30;99.90;;;;;;4946665;29;20440;-78
2023/11/30 02:39:30;;;;;;;15.27;13.77;;;-0.30;99.90;;;;;;4941489;29;20894;-78
2023/11/30 02:41:57;;;;;;;14.90;13.50;;;-0.30;99.90;;;;;;4935771;28;20448;-78
2023/11/30 02:44:24;;;;;;;16.17;14.77;;;-0.30;99.90;;;;;;4945944;28;20898;-79
2023/11/30 02:46:51;;;;;;;16.53;14.93;;;-0.30;99.90;;;;;;4954094;28;20475;-80
2023/11/30 02:49:18;;;;;;;16.07;14.60;;;-0.20;99.90;;;;;;4945633;29;20463;-78
2023/11/30 02:51:44;;;;;;;16.03;14.40;;;-0.20;99.90;;;;;;4939488;29;20440;-78
2023/11/30 02:54:11;;;;;;;14.73;13.30;;;-0.20;99.90;;;;;;4953155;28;20491;-78
2023/11/30 02:56:42;;;;;;;15.77;14.17;;;-0.30;99.90;;;;;;4938946;28;20455;-78
2023/11/30 02:59:09;;;;;;;15.27;13.83;;;-0.30;99.90;;;;;;4934043;29;20455;-79
2023/11/30 03:01:43;;;;;;;15.07;13.70;;;-0.30;99.90;;;;;;4934526;29;20452;-78
2023/11/30 03:04:10;;;;;;;16.37;14.70;;;-0.40;99.90;;;;;;4938856;29;20472;-78
2023/11/30 03:06:37;;;;;;;16.37;14.77;;;-0.40;99.90;;;;;;4943245;29;20477;-78
2023/11/30 03:09:04;;;;;;;14.77;13.47;;;-0.40;99.90;;;;;;4931670;29;20453;-78
2023/11/30 03:11:31;;;;;;;15.30;14.00;;;-0.40;99.90;;;;;;4937257;29;20458;-78
2023/11/30 03:13:59;;;;;;;15.73;14.43;;;-0.40;99.90;;;;;;4937294;29;20480;-79
2023/11/30 03:16:27;;;;;;;14.23;12.87;;;-0.40;99.90;;;;;;4934062;29;20440;-78
2023/11/30 03:18:54;;;;;;;15.10;13.73;;;-0.40;99.90;;;;;;4930452;29;21030;-79
2023/11/30 03:21:21;;;;;;;15.03;13.73;;;-0.40;99.90;;;;;;4926585;29;20845;-79
2023/11/30 03:23:49;;;;;;;14.73;13.40;;;-0.30;99.90;;;;;;4935676;29;20485;-78
2023/11/30 03:26:17;;;;;;;13.47;12.13;;;-0.30;99.90;;;;;;4940054;29;21039;-77
2023/11/30 03:28:43;;;;;;;13.47;12.10;;;-0.20;99.90;;;;;;4936941;29;20551;-78
2023/11/30 03:31:12;;;;;;;14.00;12.53;;;-0.30;99.90;;;;;;4937082;29;20454;-78
2023/11/30 03:33:38;;;;;;;13.77;12.43;;;-0.30;99.90;;;;;;4944592;29;20459;-78
2023/11/30 03:36:06;;;;;;;14.60;13.07;;;-0.30;99.90;;;;;;4956387;28;20887;-79
2023/11/30 03:38:33;;;;;;;15.53;13.33;;;-0.20;99.90;;;;;;4934361;29;20442;-79
2023/11/30 03:41:00;;;;;;;14.37;13.17;;;-0.20;99.90;;;;;;4937918;29;20983;-79
2023/11/30 03:43:27;;;;;;;14.90;13.40;;;-0.20;99.90;;;;;;4944769;29;20474;-78
2023/11/30 03:45:53;;;;;;;13.43;12.23;;;-0.20;99.90;;;;;;4940755;28;20481;-78
2023/11/30 03:48:22;;;;;;;13.63;12.23;;;-0.10;99.90;;;;;;4945511;29;20447;-78
2023/11/30 03:50:48;;;;;;;13.70;12.50;;;-0.10;99.90;;;;;;4943751;29;20448;-79
2023/11/30 03:53:15;;;;;;;14.63;13.20;;;-0.10;99.90;;;;;;4943102;28;20450;-79
2023/11/30 03:55:42;;;;;;;13.77;12.47;;;0.00;99.90;;;;;;4934708;29;20755;-80
2023/11/30 03:58:09;;;;;;;14.03;12.63;;;0.00;99.90;;;;;;4934035;29;20520;-79
2023/11/30 04:00:36;;;;;;;14.70;13.43;;;0.00;99.90;;;;;;4930051;29;20541;-79
2023/11/30 04:03:02;;;;;;;15.20;13.70;;;-0.10;99.90;;;;;;4937594;29;20471;-79
2023/11/30 04:05:31;;;;;;;13.93;12.63;;;0.00;99.90;;;;;;4933108;29;21030;-79
2023/11/30 04:08:00;;;;;;;14.47;12.97;;;0.00;99.90;;;;;;4929151;29;20499;-79
2023/11/30 04:10:27;;;;;;;14.30;12.90;;;0.00;99.90;;;;;;4931196;29;20441;-80
2023/11/30 04:12:53;;;;;;;14.33;12.93;;;0.00;99.90;;;;;;4930292;29;20444;-80
2023/11/30 04:15:20;;;;;;;14.63;13.43;;;0.00;99.90;;;;;;4931735;29;20482;-80
2023/11/30 04:17:50;;;;;;;14.00;12.80;;;0.10;99.90;;;;;;4941818;29;20441;-78
2023/11/30 04:20:17;;;;;;;14.97;13.37;;;0.10;99.90;;;;;;4933488;29;20977;-80
2023/11/30 04:22:45;;;;;;;13.73;12.53;;;0.10;99.90;;;;;;4935213;29;20455;-81
2023/11/30 04:25:12;;;;;;;14.13;12.87;;;0.10;99.90;;;;;;4932637;29;20850;-78
2023/11/30 04:27:40;;;;;;;14.07;12.67;;;0.10;99.90;;;;;;4930549;29;20477;-79
2023/11/30 04:30:08;;;;;;;15.50;14.07;;;0.10;99.90;;;;;;4924050;29;20454;-79
2023/11/30 04:32:35;;;;;;;15.07;13.77;;;0.10;99.90;;;;;;4942028;29;20463;-78
2023/11/30 04:35:04;;;;;;;14.10;12.90;;;0.10;99.90;;;;;;4949146;28;20984;-78
2023/11/30 04:37:30;;;;;;;14.40;13.20;;;0.20;99.90;;;;;;4932143;29;20454;-78
2023/11/30 04:39:59;;;;;;;13.47;12.33;;;0.10;99.90;;;;;;4935951;29;20456;-78
2023/11/30 04:42:26;;;;;;;13.67;12.50;;;0.20;99.90;;;;;;4935932;29;20446;-78
2023/11/30 04:44:53;;;;;;;15.20;13.70;;;0.20;99.90;;;;;;4938799;29;20517;-78
2023/11/30 04:47:20;;;;;;;17.90;16.50;;;0.20;99.90;;;;;;4933491;29;21026;-78
2023/11/30 04:49:47;;;;;;;13.77;12.63;;;0.20;99.90;;;;;;4938969;29;20555;-79
2023/11/30 04:52:14;;;;;;;13.63;12.20;;;0.20;99.90;;;;;;4934552;29;20861;-77
2023/11/30 04:54:41;;;;;;;13.80;12.60;;;0.30;99.90;;;;;;4934795;29;20477;-78
2023/11/30 04:57:09;;;;;;;14.30;13.03;;;0.30;99.90;;;;;;4932313;29;20457;-78
2023/11/30 04:59:37;;;;;;;17.13;15.63;;;0.30;99.90;;;;;;4940689;29;20447;-79
2023/11/30 05:02:05;;;;;;;16.27;14.87;;;0.30;99.90;;;;;;4938702;29;20824;-80
2023/11/30 05:04:31;;;;;;;16.47;15.20;;;0.30;99.90;;;;;;4937639;29;20523;-79
2023/11/30 05:06:58;;;;;;;16.90;15.43;;;0.30;99.90;;;;;;4947851;29;20480;-79
2023/11/30 05:09:25;;;;;;;16.43;15.03;;;0.40;99.90;;;;;;4943153;29;20453;-79
2023/11/30 05:11:52;;;;;;;16.37;14.87;;;0.40;99.90;;;;;;4935622;28;20956;-79
2023/11/30 05:14:20;;;;;;;17.30;15.90;;;0.40;99.90;;;;;;4946277;29;20481;-79
2023/11/30 05:16:47;;;;;;;16.33;15.03;;;0.40;99.90;;;;;;4938148;29;20433;-80
2023/11/30 05:19:14;;;;;;;16.37;15.07;;;0.40;99.90;;;;;;4936192;29;20462;-79
2023/11/30 05:21:41;;;;;;;17.17;15.87;;;0.50;99.90;;;;;;4944380;29;20436;-78
2023/11/30 05:24:08;;;;;;;16.27;15.07;;;0.50;99.90;;;;;;4948638;29;20469;-79
2023/11/30 05:26:35;;;;;;;15.90;14.70;;;0.60;99.90;;;;;;4941699;29;20528;-78
2023/11/30 05:29:02;;;;;;;17.33;15.63;;;0.60;99.90;;;;;;4942504;29;20531;-78
2023/11/30 05:31:30;;;;;;;18.30;16.80;;;0.60;99.90;;;;;;4934519;29;20486;-79
2023/11/30 05:33:57;;;;;;;17.23;15.73;;;0.70;99.90;;;;;;4949535;29;20474;-78
2023/11/30 05:36:24;;;;;;;17.67;16.20;;;0.70;99.90;;;;;;4940271;29;20477;-80
2023/11/30 05:38:51;;;;;;;17.23;15.83;;;0.70;99.90;;;;;;4934090;29;20453;-79
2023/11/30 05:41:18;;;;;;;18.23;16.73;;;0.70;99.90;;;;;;4942360;29;20445;-79
2023/11/30 05:43:45;;;;;;;19.00;17.43;;;0.70;99.90;;;;;;4942994;29;20468;-79
2023/11/30 05:46:12;;;;;;;21.00;19.30;;;0.60;99.90;;;;;;4945889;28;20485;-80
2023/11/30 05:48:40;;;;;;;20.30;18.63;;;0.70;99.90;;;;;;4938718;29;20442;-80
2023/11/30 05:51:08;;;;;;;20.23;18.53;;;0.60;99.90;;;;;;4941793;29;20804;-80
2023/11/30 05:53:35;;;;;;;19.10;17.60;;;0.60;99.90;;;;;;4937878;28;20611;-79
2023/11/30 05:56:02;;;;;;;19.83;18.13;;;0.60;99.90;;;;;;4940897;29;20463;-80
2023/11/30 05:58:29;;;;;;;19.37;17.87;;;0.60;99.90;;;;;;4940119;29;20497;-79
2023/11/30 06:00:57;;;;;;;19.37;17.87;;;0.60;99.90;;;;;;4941250;29;20497;-80
2023/11/30 06:03:23;;;;;;;20.27;18.60;;;0.60;99.90;;;;;;4950703;28;20463;-80
2023/11/30 06:05:52;;;;;;;21.53;19.60;;;0.60;99.90;;;;;;4934561;28;20433;-79
2023/11/30 06:08:18;;;;;;;22.57;20.10;;;0.70;99.90;;;;;;4940071;29;20503;-79
2023/11/30 06:10:45;;;;;;;20.30;18.57;;;0.70;99.90;;;;;;4945182;29;20457;-78
2023/11/30 06:13:14;;;;;;;23.50;21.20;;;0.70;99.90;;;;;;4936885;29;20876;-79
2023/11/30 06:15:41;;;;;;;26.53;21.53;;;0.70;99.90;;;;;;4953024;29;20454;-80
2023/11/30 06:18:08;;;;;;;25.50;22.80;;;0.70;99.90;;;;;;4937194;29;20473;-80
2023/11/30 06:20:34;;;;;;;25.10;21.90;;;0.70;99.90;;;;;;4950137;29;20452;-79
2023/11/30 06:23:03;;;;;;;23.30;21.07;;;0.80;99.90;;;;;;4942616;29;20971;-79
2023/11/30 06:25:29;;;;;;;23.63;21.43;;;0.70;99.90;;;;;;4941803;29;20469;-79
2023/11/30 06:27:56;;;;;;;23.40;21.10;;;0.80;99.90;;;;;;4941445;29;21056;-79
2023/11/30 06:30:23;;;;;;;23.73;21.17;;;0.80;99.90;;;;;;4935611;29;20795;-81
2023/11/30 06:32:50;;;;;;;21.17;19.07;;;0.80;99.90;;;;;;4935875;29;20457;-80
2023/11/30 06:35:17;;;;;;;19.43;17.73;;;0.80;99.90;;;;;;4937424;29;20860;-79
2023/11/30 06:37:43;;;;;;;18.17;16.77;;;0.80;99.90;;;;;;4941053;29;20451;-80
2023/11/30 06:40:13;;;;;;;19.10;17.70;;;0.70;99.90;;;;;;4950900;29;20463;-79
2023/11/30 06:42:39;;;;;;;18.57;17.10;;;0.80;99.90;;;;;;4936112;29;20454;-80
2023/11/30 06:45:07;;;;;;;18.10;16.70;;;0.70;99.90;;;;;;4934896;29;20488;-79
2023/11/30 06:47:34;;;;;;;19.10;17.60;;;0.70;99.90;;;;;;4933669;29;20475;-79
2023/11/30 06:50:01;;;;;;;18.03;16.73;;;0.70;99.90;;;;;;4949748;28;20454;-80
2023/11/30 06:52:28;;;;;;;18.40;16.90;;;0.80;99.90;;;;;;4943847;28;20455;-79
2023/11/30 06:54:54;;;;;;;17.73;16.37;;;0.80;99.90;;;;;;4940011;29;20896;-80
2023/11/30 06:57:23;;;;;;;17.80;16.30;;;0.80;99.90;;;;;;4952623;28;20435;-80
2023/11/30 06:59:50;;;;;;;17.00;15.63;;;0.80;99.90;;;;;;4939089;29;20504;-79
2023/11/30 07:02:17;;;;;;;17.37;16.17;;;0.80;99.90;;;;;;4946249;29;20443;-80
2023/11/30 07:04:44;;;;;;;16.53;14.90;;;0.80;99.90;;;;;;4937816;29;20519;-80
2023/11/30 07:07:11;;;;;;;17.13;15.73;;;0.80;99.90;;;;;;4933720;29;20590;-80
2023/11/30 07:09:37;;;;;;;16.70;15.40;;;0.80;99.90;;;;;;4947108;29;20460;-80
2023/11/30 07:12:05;;;;;;;17.47;16.17;;;0.80;99.90;;;;;;4948964;29;20446;-81
2023/11/30 07:14:33;;;;;;;17.33;16.00;;;0.90;99.90;;;;;;4952973;29;20536;-79
2023/11/30 07:17:00;;;;;;;18.40;16.70;;;0.80;99.90;;;;;;4949202;28;20805;-79
2023/11/30 07:19:27;;;;;;;17.20;15.93;;;0.80;99.90;;;;;;4953148;29;20545;-80
2023/11/30 07:21:53;;;;;;;18.50;16.93;;;0.80;99.90;;;;;;4952357;28;20524;-79
2023/11/30 07:24:20;;;;;;;18.03;16.63;;;0.80;99.90;;;;;;4960849;28;20469;-80
2023/11/30 07:26:47;;;;;;;18.30;16.70;;;0.80;99.90;;;;;;4962269;28;20562;-80
2023/11/30 07:29:15;;;;;;;18.40;16.80;;;0.80;99.90;;;;;;4944252;29;20475;-80
2023/11/30 07:31:44;;;;;;;17.40;16.00;;;0.90;99.90;;;;;;4945065;29;20463;-80
2023/11/30 07:34:10;;;;;;;17.10;15.70;;;0.90;99.90;;;;;;4960445;28;20837;-82
2023/11/30 07:36:37;;;;;;;18.10;16.60;;;0.90;99.90;;;;;;4946901;28;20442;-78
2023/11/30 07:39:04;;;;;;;17.30;15.90;;;1.00;99.90;;;;;;4942723;28;20498;-79
2023/11/30 07:41:31;;;;;;;17.20;15.90;;;1.10;99.90;;;;;;4950971;28;20449;-81
2023/11/30 07:43:58;;;;;;;18.00;16.53;;;1.10;99.90;;;;;;4935036;29;20478;-80
2023/11/30 07:46:25;;;;;;;17.73;16.40;;;1.10;99.90;;;;;;4949367;28;20446;-79
2023/11/30 07:48:54;;;;;;;18.87;17.30;;;1.20;99.90;;;;;;4932436;29;20490;-81
2023/11/30 07:51:22;;;;;;;19.40;17.70;;;1.20;99.90;;;;;;4937531;29;20461;-81
2023/11/30 07:53:48;;;;;;;18.60;17.10;;;1.30;99.90;;;;;;4942941;29;20467;-81
2023/11/30 07:56:18;;;;;;;17.47;16.13;;;1.40;99.90;;;;;;4938168;29;20460;-80
2023/11/30 07:58:45;;;;;;;17.43;16.03;;;1.40;99.90;;;;;;4938311;29;20446;-80
2023/11/30 08:01:11;;;;;;;18.47;16.97;;;1.40;99.90;;;;;;4950633;29;20454;-80
2023/11/30 08:03:38;;;;;;;18.67;17.17;;;1.40;99.90;;;;;;4936860;29;21005;-81
2023/11/30 08:06:08;;;;;;;18.53;17.03;;;1.40;99.90;;;;;;4946595;29;20465;-81
2023/11/30 08:08:34;;;;;;;18.30;16.80;;;1.40;99.90;;;;;;4936683;29;20493;-80
2023/11/30 08:11:01;;;;;;;18.53;16.83;;;1.30;99.90;;;;;;4944444;29;20440;-79
2023/11/30 08:13:29;;;;;;;17.90;16.47;;;1.40;99.90;;;;;;4944527;29;20499;-80
2023/11/30 08:15:56;;;;;;;18.73;17.20;;;1.40;99.90;;;;;;4947989;28;20456;-80
2023/11/30 08:18:24;;;;;;;17.70;16.20;;;1.30;99.90;;;;;;4950948;29;20449;-80
2023/11/30 08:20:53;;;;;;;17.73;16.23;;;1.40;99.90;;;;;;4947541;29;20513;-79
2023/11/30 08:23:22;;;;;;;17.97;16.47;;;1.40;99.90;;;;;;4938705;29;20470;-80
2023/11/30 08:25:49;;;;;;;18.27;16.87;;;1.40;99.90;;;;;;4937101;29;20498;-80
2023/11/30 08:28:16;;;;;;;17.47;16.17;;;1.50;99.90;;;;;;4957409;28;21036;-81
2023/11/30 08:30:44;;;;;;;17.53;16.17;;;1.50;99.90;;;;;;4932755;29;20535;-81
2023/11/30 08:33:10;;;;;;;17.23;15.83;;;1.50;99.90;;;;;;4934262;29;20483;-79
2023/11/30 08:35:37;;;;;;;17.73;16.30;;;1.60;99.90;;;;;;4940158;29;20855;-80
2023/11/30 08:38:04;;;;;;;17.63;16.33;;;1.60;99.90;;;;;;4939373;29;20195;-82
2023/11/30 08:40:44;;;;;;;17.77;16.37;;;1.70;99.90;;;;;;4944621;28;20218;-80
2023/11/30 08:43:21;;;;;;;16.67;15.33;;;1.80;99.90;;;;;;4945818;29;20215;-80
2023/11/30 08:45:51;;;;;;;17.73;16.27;;;1.80;99.90;;;;;;4938906;28;20840;-79
2023/11/30 08:48:19;;;;;;;16.57;15.37;;;1.80;99.90;;;;;;4949474;28;20721;-81
2023/11/30 08:50:46;;;;;;;17.20;15.77;;;1.90;99.90;;;;;;4937901;29;20443;-79
2023/11/30 08:53:13;;;;;;;16.63;15.37;;;2.00;99.90;;;;;;4939746;29;20200;-79
2023/11/30 08:55:41;;;;;;;18.13;16.60;;;2.00;99.90;;;;;;4943897;29;20200;-79
2023/11/30 08:58:08;;;;;;;17.23;15.77;;;2.00;99.90;;;;;;4940445;29;20204;-78
2023/11/30 09:00:35;;;;;;;16.43;15.20;;;2.00;99.90;;;;;;4948070;29;20326;-80
2023/11/30 09:03:02;;;;;;;17.50;16.13;;;2.00;99.90;;;;;;4944636;28;20199;-79
2023/11/30 09:05:29;;;;;;;17.40;16.00;;;2.10;99.90;;;;;;4938897;29;20214;-78
2023/11/30 09:07:56;;;;;;;18.07;16.50;;;2.10;99.90;;;;;;4950858;29;20257;-81
2023/11/30 09:10:23;;;;;;;17.53;16.13;;;2.20;99.90;;;;;;4931476;29;20195;-79
2023/11/30 09:12:52;;;;;;;17.70;16.30;;;2.20;99.90;;;;;;4937449;29;20624;-80
2023/11/30 09:15:19;;;;;;;17.90;16.30;;;2.20;99.90;;;;;;4937859;29;20636;-79
2023/11/30 09:17:46;;;;;;;17.83;16.33;;;2.20;99.90;;;;;;4950062;29;20183;-80
2023/11/30 09:20:13;;;;;;;18.60;16.93;;;2.10;99.90;;;;;;4943285;28;20214;-79
2023/11/30 09:22:40;;;;;;;18.03;16.27;;;2.20;99.90;;;;;;4952892;28;20218;-80
2023/11/30 09:25:08;;;;;;;18.77;17.17;;;2.30;99.90;;;;;;4953480;29;20254;-78
2023/11/30 09:27:34;;;;;;;18.57;16.97;;;2.30;99.90;;;;;;4936909;29;20611;-79
2023/11/30 09:30:05;;;;;;;17.40;16.00;;;2.30;99.90;;;;;;4944265;29;20659;-81
2023/11/30 09:32:32;;;;;;;16.70;15.40;;;2.40;99.90;;;;;;4948284;29;20282;-81
2023/11/30 09:34:58;;;;;;;17.20;15.80;;;2.50;99.90;;;;;;4936881;29;20219;-80
2023/11/30 09:37:25;;;;;;;18.17;16.70;;;2.60;99.90;;;;;;4936901;29;20188;-80
2023/11/30 09:39:52;;;;;;;17.97;16.40;;;2.60;99.90;;;;;;4936698;29;20302;-79
2023/11/30 09:42:19;;;;;;;17.23;15.73;;;2.70;99.90;;;;;;4943278;28;20212;-80
2023/11/30 09:44:46;;;;;;;17.37;15.97;;;2.70;99.90;;;;;;4949365;29;20226;-81
2023/11/30 09:47:15;;;;;;;18.07;16.57;;;2.80;99.90;;;;;;4945035;29;20187;-79
2023/11/30 09:49:43;;;;;;;17.93;16.47;;;2.80;99.90;;;;;;4954317;28;20234;-79
2023/11/30 09:52:11;;;;;;;17.67;16.10;;;2.90;99.90;;;;;;4939336;29;20249;-79
2023/11/30 09:54:38;;;;;;;17.87;16.30;;;2.90;99.90;;;;;;4942137;28;20242;-82
2023/11/30 09:57:05;;;;;;;18.40;16.80;;;2.90;99.90;;;;;;4943591;29;20198;-79
2023/11/30 09:59:32;;;;;;;18.33;16.83;;;3.00;99.90;;;;;;4936581;29;20688;-79
2023/11/30 10:01:59;;;;;;;18.27;16.87;;;3.00;99.90;;;;;;4941286;29;20898;-80
2023/11/30 10:04:28;;;;;;;19.90;18.03;;;3.00;99.90;;;;;;4945700;29;20225;-79
2023/11/30 10:06:56;;;;;;;20.60;18.70;;;3.10;99.90;;;;;;4946980;29;20253;-80
2023/11/30 10:09:23;;;;;;;19.20;17.50;;;3.10;99.90;;;;;;4944394;28;20249;-79
2023/11/30 10:11:50;;;;;;;19.77;18.13;;;3.10;99.90;;;;;;4949266;28;20199;-80
2023/11/30 10:14:17;;;;;;;19.83;18.13;;;3.10;99.90;;;;;;4943031;28;20679;-79
2023/11/30 10:16:45;;;;;;;20.17;18.30;;;3.00;99.90;;;;;;4943872;29;20200;-79
2023/11/30 10:19:13;;;;;;;20.13;18.37;;;3.00;99.90;;;;;;4940237;29;20215;-80
2023/11/30 10:21:41;;;;;;;20.30;18.40;;;3.00;99.90;;;;;;4943280;29;20204;-79
2023/11/30 10:24:08;;;;;;;20.07;18.37;;;3.10;99.90;;;;;;4933688;29;20708;-80
2023/11/30 10:26:36;;;;;;;20.50;18.80;;;3.10;99.90;;;;;;4949410;29;20626;-80
2023/11/30 10:29:06;;;;;;;19.70;18.00;;;3.10;99.90;;;;;;4936895;29;20223;-78
2023/11/30 10:31:35;;;;;;;18.23;16.63;;;3.10;99.90;;;;;;4935817;28;20207;-79
2023/11/30 10:34:09;;;;;;;19.17;17.47;;;3.20;99.90;;;;;;4942430;29;20242;-78
2023/11/30 10:36:38;;;;;;;18.50;16.90;;;3.20;99.90;;;;;;4926757;29;20203;-80
2023/11/30 10:39:14;;;;;;;19.17;17.50;;;3.30;99.90;;;;;;4944709;28;20262;-79
2023/11/30 10:41:48;;;;;;;18.50;17.03;;;3.30;99.90;;;;;;4939399;29;20203;-80
2023/11/30 10:44:25;;;;;;;18.77;17.17;;;3.50;99.90;;;;;;4937301;29;20223;-79
2023/11/30 10:46:54;;;;;;;18.53;17.03;;;3.60;99.90;;;;;;4936737;29;20195;-82
2023/11/30 10:49:23;;;;;;;18.07;16.57;;;3.70;99.90;;;;;;4949562;29;20723;-80
2023/11/30 10:51:51;;;;;;;18.17;16.77;;;3.70;99.90;;;;;;4929607;29;20465;-79
2023/11/30 10:54:30;;;;;;;17.17;15.80;;;3.80;99.90;;;;;;4935147;29;20474;-77
2023/11/30 10:56:59;;;;;;;18.07;16.77;;;3.80;99.90;;;;;;4939750;29;20476;-77
2023/11/30 10:59:29;;;;;;;17.40;16.00;;;3.80;99.90;;;;;;4926390;29;20729;-80
2023/11/30 11:01:57;;;;;;;18.23;16.93;;;3.90;99.90;;;;;;4928916;29;20208;-79
2023/11/30 11:04:24;;;;;;;17.83;16.43;;;3.90;99.90;;;;;;4932093;29;20276;-79
2023/11/30 11:06:51;;;;;;;18.70;17.23;;;4.00;99.90;;;;;;4926518;29;20252;-79
2023/11/30 11:09:19;;;;;;;19.10;17.50;;;4.00;99.90;;;;;;4932866;29;20224;-79
2023/11/30 11:11:50;;;;;;;18.73;17.27;;;4.00;99.90;;;;;;4930362;29;20204;-79
2023/11/30 11:14:29;;;;;;;18.40;16.90;;;4.00;99.90;;;;;;4934715;29;20227;-80
2023/11/30 11:17:06;;;;;;;18.67;17.27;;;4.00;99.90;;;;;;4934652;29;20213;-79
2023/11/30 11:19:33;;;;;;;19.13;17.53;;;4.00;99.90;;;;;;4934923;29;20686;-80
2023/11/30 11:22:00;;;;;;;19.67;18.17;;;4.10;99.90;;;;;;4946504;29;20642;-78
2023/11/30 11:24:27;;;;;;;18.20;16.80;;;4.10;99.90;;;;;;4941500;28;20781;-81
2023/11/30 11:26:59;;;;;;;20.30;18.47;;;4.00;99.90;;;;;;4942239;28;20201;-81
2023/11/30 11:29:28;;;;;;;19.37;17.90;;;4.00;99.90;;;;;;4937729;29;20223;-80
2023/11/30 11:31:58;;;;;;;19.30;17.70;;;4.10;99.90;;;;;;4948557;29;20615;-78
2023/11/30 11:34:25;;;;;;;23.40;21.10;;;4.10;99.90;;;;;;4945870;29;20238;-79
2023/11/30 11:36:52;;;;;;;20.67;18.77;;;4.20;99.90;;;;;;4934169;29;20230;-80
2023/11/30 11:39:21;;;;;;;21.63;19.80;;;4.20;99.90;;;;;;4947505;29;20443;-80
2023/11/30 11:41:48;;;;;;;19.83;18.30;;;4.20;99.90;;;;;;4928935;29;20222;-80
2023/11/30 11:44:16;;;;;;;19.97;18.27;;;4.20;99.90;;;;;;4927073;29;20337;-80
2023/11/30 11:46:43;;;;;;;21.30;19.70;;;4.30;99.90;;;;;;4928875;29;20456;-80
2023/11/30 11:49:10;;;;;;;18.93;17.43;;;4.30;99.90;;;;;;4945924;28;20563;-80
2023/11/30 11:51:44;;;;;;;18.87;17.37;;;4.40;99.90;;;;;;4944252;29;20235;-80
2023/11/30 11:54:18;;;;;;;19.30;17.70;;;4.40;99.90;;;;;;4932184;29;20311;-80
2023/11/30 11:56:47;;;;;;;18.93;17.50;;;4.40;99.90;;;;;;4934250;29;20265;-80
2023/11/30 11:59:20;;;;;;;18.50;17.00;;;4.40;99.90;;;;;;4931122;29;20228;-81
2023/11/30 12:01:47;;;;;;;19.53;17.83;;;4.40;99.90;;;;;;4929818;29;20205;-81
2023/11/30 12:04:24;;;;;;;19.50;17.80;;;4.40;99.90;;;;;;4942126;29;20499;-80
2023/11/30 12:06:51;;;;;;;19.70;18.20;;;4.40;99.90;;;;;;4942862;28;20824;-80
2023/11/30 12:09:18;;;;;;;19.27;17.67;;;4.40;99.90;;;;;;4936827;29;20221;-81
2023/11/30 12:11:45;;;;;;;18.20;16.80;;;4.50;99.90;;;;;;4931109;29;20225;-78
2023/11/30 12:14:13;;;;;;;18.63;17.13;;;4.50;99.90;;;;;;4937459;29;20225;-79
2023/11/30 12:16:42;;;;;;;18.60;17.20;;;4.50;99.90;;;;;;4935546;29;20617;-79
2023/11/30 12:19:09;;;;;;;18.97;17.47;;;4.50;99.90;;;;;;4943111;29;20258;-79
2023/11/30 12:21:36;;;;;;;18.87;17.30;;;4.50;99.90;;;;;;4936292;29;20236;-79
2023/11/30 12:24:03;;;;;;;18.60;17.20;;;4.50;99.90;;;;;;4943801;29;20252;-79
2023/11/30 12:26:30;;;;;;;19.10;17.57;;;4.60;99.90;;;;;;4939155;29;20258;-81
2023/11/30 12:28:58;;;;;;;18.27;16.77;;;4.50;99.90;;;;;;4935165;29;20221;-79
2023/11/30 12:31:25;;;;;;;19.37;17.77;;;4.50;99.90;;;;;;4927556;29;20221;-79
2023/11/30 12:33:53;;;;;;;19.93;18.13;;;4.50;99.90;;;;;;4931542;29;20225;-79
2023/11/30 12:36:20;;;;;;;17.83;16.43;;;4.50;99.90;;;;;;4939591;29;20227;-79
2023/11/30 12:38:47;;;;;;;17.60;16.20;;;4.40;99.90;;;;;;4939539;29;20895;-79